Time;durP1;ratioP1;P1;durP2;ratioP2;P2;SDS_P1;SDS_P2;PMS_P1;PMS_P2;Temp;Humidity;BMP_temperature;BMP_pressure;BME280_temperature;BME280_humidity;BME280_pressure;Samples;Min_cycle;Max_cycle;Signal;HPM_P1;HPM_P2
2022/06/15 00:01:14;;;;;;;5.50;3.65;;;12.40;99.90;;;;;;5015432;28;20030;-70
2022/06/15 00:03:41;;;;;;;6.05;3.35;;;12.40;99.90;;;;;;5015451;28;20029;-70
2022/06/15 00:06:12;;;;;;;4.80;3.95;;;12.50;99.90;;;;;;5014962;28;20029;-70
2022/06/15 00:08:40;;;;;;;5.75;2.92;;;12.60;99.90;;;;;;5015186;28;20022;-68
2022/06/15 00:11:21;;;;;;;5.10;3.13;;;12.70;99.90;;;;;;5013613;28;20121;-69
2022/06/15 00:13:49;;;;;;;4.75;3.20;;;12.80;99.90;;;;;;5013625;28;20120;-68
2022/06/15 00:16:18;;;;;;;3.90;2.60;;;12.90;99.90;;;;;;5014787;28;20026;-69
2022/06/15 00:18:46;;;;;;;6.00;3.08;;;12.90;99.90;;;;;;5014960;28;20571;-68
2022/06/15 00:21:14;;;;;;;4.57;2.75;;;13.00;99.90;;;;;;5014747;28;20037;-68
2022/06/15 00:23:41;;;;;;;7.97;3.35;;;13.10;99.90;;;;;;5013420;28;20034;-69
2022/06/15 00:26:09;;;;;;;43.15;11.13;;;13.30;99.90;;;;;;5014636;28;20360;-69
2022/06/15 00:28:37;;;;;;;15.82;6.38;;;13.50;99.90;;;;;;5014415;28;20021;-69
2022/06/15 00:31:05;;;;;;;7.93;4.85;;;13.50;99.90;;;;;;5014681;28;20069;-70
2022/06/15 00:33:33;;;;;;;33.20;9.45;;;13.50;99.90;;;;;;5013247;28;20394;-69
2022/06/15 00:36:07;;;;;;;9.38;4.80;;;13.50;99.90;;;;;;5014494;28;20022;-70
2022/06/15 00:38:44;;;;;;;4.10;3.70;;;13.60;99.90;;;;;;5014771;28;20030;-69
2022/06/15 00:41:19;;;;;;;21.25;6.45;;;13.70;99.90;;;;;;5014793;28;20036;-69
2022/06/15 00:43:51;;;;;;;7.00;3.83;;;13.80;99.90;;;;;;4997406;28;20046;-68
2022/06/15 00:46:23;;;;;;;12.20;4.38;;;13.80;99.90;;;;;;5014316;28;20084;-69
2022/06/15 00:48:59;;;;;;;8.05;3.70;;;13.80;99.90;;;;;;5012876;28;20029;-70
2022/06/15 00:51:27;;;;;;;3.88;2.53;;;14.00;99.90;;;;;;5012584;28;20050;-70
2022/06/15 00:53:56;;;;;;;6.13;3.00;;;14.00;99.90;;;;;;5012895;28;20032;-70
2022/06/15 00:56:25;;;;;;;4.53;2.60;;;14.10;99.90;;;;;;5014119;28;20105;-69
2022/06/15 00:58:56;;;;;;;5.88;3.30;;;14.20;99.90;;;;;;5014022;28;20021;-69
2022/06/15 01:01:24;;;;;;;6.05;3.08;;;14.30;99.90;;;;;;5014018;28;20451;-69
2022/06/15 01:03:53;;;;;;;4.30;2.38;;;14.40;99.90;;;;;;5012633;28;20026;-69
2022/06/15 01:06:38;;;;;;;4.22;1.70;;;14.40;99.90;;;;;;5013870;28;20026;-70
2022/06/15 01:09:17;;;;;;;1.95;1.23;;;14.50;99.90;;;;;;5012644;28;20552;-69
2022/06/15 01:12:17;;;;;;;3.22;1.10;;;14.60;99.90;;;;;;5014100;28;20041;-69
2022/06/15 01:14:52;;;;;;;2.85;1.15;;;14.80;99.90;;;;;;5013896;28;20022;-69
2022/06/15 01:17:37;;;;;;;10.23;1.83;;;14.90;99.90;;;;;;5012431;28;20030;-69
2022/06/15 01:20:18;;;;;;;5.10;1.00;;;15.10;99.90;;;;;;5013869;28;20056;-70
2022/06/15 01:23:26;;;;;;;5.15;1.42;;;15.00;99.90;;;;;;5013689;28;20026;-70
2022/06/15 01:26:13;;;;;;;0.80;0.70;;;15.10;99.90;;;;;;5013808;28;20025;-70
2022/06/15 01:28:44;;;;;;;1.25;0.63;;;15.10;99.90;;;;;;5013326;28;20026;-70
2022/06/15 01:31:34;;;;;;;3.17;1.05;;;15.20;99.90;;;;;;5012265;28;20392;-70
2022/06/15 01:34:16;;;;;;;1.55;0.68;;;15.30;99.90;;;;;;5013751;28;20034;-72
2022/06/15 01:37:12;;;;;;;2.85;1.15;;;15.40;99.90;;;;;;5014025;28;20439;-71
2022/06/15 01:39:42;;;;;;;2.60;0.77;;;15.50;99.90;;;;;;5013283;28;20052;-71
2022/06/15 01:42:16;;;;;;;2.03;0.75;;;15.60;99.90;;;;;;5011924;28;20038;-71
2022/06/15 01:44:48;;;;;;;1.10;0.68;;;15.70;99.90;;;;;;5012098;28;20030;-71
2022/06/15 01:47:22;;;;;;;0.95;0.70;;;15.70;99.90;;;;;;5013269;28;20026;-71
2022/06/15 01:49:58;;;;;;;1.13;0.60;;;15.90;99.90;;;;;;5013390;28;20076;-71
2022/06/15 01:52:30;;;;;;;1.92;0.45;;;15.90;99.90;;;;;;5011597;28;20049;-71
2022/06/15 01:55:05;;;;;;;1.23;0.82;;;15.90;99.90;;;;;;5013869;28;20021;-72
2022/06/15 01:57:35;;;;;;;3.88;0.90;;;16.00;99.90;;;;;;5011737;28;20140;-72
2022/06/15 02:00:12;;;;;;;1.25;0.65;;;16.20;99.90;;;;;;5013190;28;20030;-71
2022/06/15 02:02:57;;;;;;;8.77;1.77;;;16.30;99.90;;;;;;5013427;28;20033;-72
2022/06/15 02:05:58;;;;;;;0.88;0.50;;;16.40;99.90;;;;;;5013323;28;20033;-71
2022/06/15 02:08:59;;;;;;;1.83;0.75;;;16.50;99.90;;;;;;5012988;28;20053;-72
2022/06/15 02:11:45;;;;;;;1.45;0.50;;;16.40;99.90;;;;;;5011577;28;20097;-71
2022/06/15 02:14:31;;;;;;;1.65;0.40;;;16.50;99.90;;;;;;5011619;28;20124;-72
2022/06/15 02:17:07;;;;;;;1.65;0.60;;;16.50;99.90;;;;;;5013183;28;20036;-72
2022/06/15 02:19:43;;;;;;;1.05;0.50;;;16.60;99.90;;;;;;5012859;28;20429;-71
2022/06/15 02:22:20;;;;;;;1.95;0.75;;;16.60;99.90;;;;;;5012999;28;20074;-71
2022/06/15 02:24:51;;;;;;;0.73;0.52;;;16.60;99.90;;;;;;5012818;28;20057;-71
2022/06/15 02:27:20;;;;;;;0.90;0.65;;;16.80;99.90;;;;;;5011640;28;20482;-71
2022/06/15 02:29:51;;;;;;;1.67;0.70;;;16.90;99.90;;;;;;5012767;28;20030;-71
2022/06/15 02:32:18;;;;;;;;;;;16.90;99.90;;;;;;5012035;28;20497;-73
2022/06/15 02:34:45;;;;;;;1.25;0.50;;;17.10;99.90;;;;;;5012833;28;19951;-72
2022/06/15 02:37:12;;;;;;;0.73;0.30;;;17.10;99.90;;;;;;5011554;28;20021;-71
2022/06/15 02:39:40;;;;;;;0.40;0.40;;;17.10;99.90;;;;;;5012752;28;20026;-71
2022/06/15 02:42:35;;;;;;;1.70;0.77;;;17.20;99.90;;;;;;5012898;28;20359;-72
2022/06/15 02:45:11;;;;;;;1.83;0.70;;;17.30;99.90;;;;;;5012788;28;20541;-71
2022/06/15 02:47:41;;;;;;;1.77;0.60;;;17.50;99.90;;;;;;5011447;28;20022;-72
2022/06/15 02:50:11;;;;;;;0.80;0.50;;;17.50;99.90;;;;;;5012691;28;20102;-71
2022/06/15 02:53:09;;;;;;;1.30;0.65;;;17.40;99.90;;;;;;5015380;28;20429;-73
2022/06/15 02:55:37;;;;;;;0.77;0.40;;;17.60;99.90;;;;;;4997323;28;20478;-72
2022/06/15 02:58:14;;;;;;;1.10;0.60;;;17.60;99.90;;;;;;5016431;28;20113;-72
2022/06/15 03:00:42;;;;;;;3.95;0.57;;;17.60;99.90;;;;;;5016324;28;20034;-72
2022/06/15 03:03:10;;;;;;;1.50;0.52;;;17.70;99.90;;;;;;5016386;28;20022;-73
2022/06/15 03:05:37;;;;;;;1.10;0.60;;;17.70;99.90;;;;;;5016088;28;20018;-74
2022/06/15 03:08:05;;;;;;;0.75;0.40;;;17.80;99.60;;;;;;5016430;28;20022;-73
2022/06/15 03:10:32;;;;;;;1.05;0.50;;;17.90;99.60;;;;;;5014731;28;20030;-74
2022/06/15 03:12:59;;;;;;;2.15;0.55;;;17.80;97.90;;;;;;5014811;28;20553;-73
2022/06/15 03:15:26;;;;;;;0.85;0.40;;;17.90;97.90;;;;;;5016061;28;20030;-73
2022/06/15 03:17:54;;;;;;;0.82;0.40;;;17.90;98.20;;;;;;5014733;28;20532;-73
2022/06/15 03:20:21;;;;;;;0.50;0.30;;;18.10;98.40;;;;;;5015819;28;20026;-73
2022/06/15 03:22:50;;;;;;;0.70;0.40;;;18.10;98.90;;;;;;5014732;28;20029;-73
2022/06/15 03:25:18;;;;;;;0.73;0.30;;;18.10;99.60;;;;;;5014525;28;20080;-73
2022/06/15 03:27:45;;;;;;;2.15;0.50;;;18.10;98.20;;;;;;5015895;28;20501;-73
2022/06/15 03:30:13;;;;;;;0.73;0.40;;;18.20;97.20;;;;;;5015813;28;20029;-73
2022/06/15 03:32:41;;;;;;;0.68;0.40;;;18.30;97.70;;;;;;5015980;28;20101;-73
2022/06/15 03:35:10;;;;;;;0.40;0.30;;;18.20;96.30;;;;;;5014295;28;20367;-74
2022/06/15 03:37:41;;;;;;;1.23;0.30;;;18.20;96.40;;;;;;5015765;28;20037;-73
2022/06/15 03:40:11;;;;;;;1.23;0.63;;;18.20;97.60;;;;;;5015366;28;20030;-73
2022/06/15 03:42:41;;;;;;;2.25;0.50;;;18.20;96.80;;;;;;5015268;28;20032;-74
2022/06/15 03:45:12;;;;;;;0.40;0.20;;;18.30;97.60;;;;;;5015166;28;20136;-73
2022/06/15 03:47:39;;;;;;;1.63;0.45;;;18.20;96.50;;;;;;5015760;28;20437;-74
2022/06/15 03:50:08;;;;;;;1.33;0.35;;;18.30;97.20;;;;;;5015794;28;20026;-73
2022/06/15 03:52:35;;;;;;;1.13;0.40;;;18.30;96.40;;;;;;5013854;28;20058;-73
2022/06/15 03:55:04;;;;;;;1.42;0.50;;;18.30;96.30;;;;;;5015397;28;20502;-73
2022/06/15 03:57:32;;;;;;;0.55;0.38;;;18.30;96.50;;;;;;5015193;28;20026;-72
2022/06/15 03:59:59;;;;;;;0.82;0.22;;;18.30;96.80;;;;;;5015112;28;20038;-72
2022/06/15 04:02:26;;;;;;;1.40;0.50;;;18.30;96.30;;;;;;5014457;28;20026;-73
2022/06/15 04:04:54;;;;;;;1.92;0.50;;;18.30;96.90;;;;;;5014719;28;20544;-72
2022/06/15 04:10:07;;;;;;;0.95;0.30;;;18.40;96.30;;;;;;5015182;28;20080;-71
2022/06/15 04:12:34;;;;;;;0.77;0.40;;;18.40;96.30;;;;;;5013506;28;20034;-71
2022/06/15 04:15:01;;;;;;;1.33;0.50;;;18.30;97.60;;;;;;5015046;28;20057;-72
2022/06/15 04:17:29;;;;;;;1.48;0.40;;;18.40;97.10;;;;;;5014756;28;20025;-72
2022/06/15 04:22:41;;;;;;;1.58;0.30;;;18.30;96.30;;;;;;5014850;28;20032;-71
2022/06/15 04:25:09;;;;;;;1.13;0.40;;;18.30;96.50;;;;;;5013318;28;20029;-72
2022/06/15 04:27:37;;;;;;;1.00;0.35;;;18.30;96.40;;;;;;5014844;28;20470;-72
2022/06/15 04:30:05;;;;;;;0.68;0.32;;;18.30;96.20;;;;;;5014642;28;20050;-72
2022/06/15 04:32:32;;;;;;;1.70;0.40;;;18.30;97.20;;;;;;5013090;28;20061;-70
2022/06/15 04:34:59;;;;;;;1.80;0.30;;;18.30;97.50;;;;;;5014609;28;20421;-71
2022/06/15 04:37:27;;;;;;;0.70;0.28;;;18.30;97.50;;;;;;5013051;28;20021;-71
2022/06/15 04:39:54;;;;;;;1.48;0.32;;;18.20;97.90;;;;;;5014666;28;20382;-71
2022/06/15 04:42:22;;;;;;;0.82;0.38;;;18.20;96.70;;;;;;5013934;28;20586;-70
2022/06/15 04:44:49;;;;;;;1.05;0.40;;;18.20;97.40;;;;;;5012458;28;20029;-70
2022/06/15 04:47:16;;;;;;;2.30;0.70;;;18.10;97.10;;;;;;5012319;28;20026;-71
2022/06/15 04:49:44;;;;;;;0.60;0.40;;;18.10;98.20;;;;;;5012566;28;20435;-71
2022/06/15 04:52:11;;;;;;;0.80;0.30;;;18.00;98.20;;;;;;5012629;28;20054;-71
2022/06/15 04:54:38;;;;;;;1.50;0.30;;;18.00;97.90;;;;;;5014248;28;20100;-71
2022/06/15 04:57:06;;;;;;;0.30;0.28;;;17.90;98.10;;;;;;5014258;28;20459;-71
2022/06/15 04:59:34;;;;;;;0.60;0.40;;;17.90;98.90;;;;;;5014330;28;20022;-72
2022/06/15 05:02:01;;;;;;;1.20;0.35;;;18.00;98.30;;;;;;5014074;28;20543;-71
2022/06/15 05:04:28;;;;;;;4.57;0.60;;;17.90;98.70;;;;;;5014110;28;20018;-72
2022/06/15 05:06:56;;;;;;;2.05;0.63;;;18.00;98.00;;;;;;5014022;28;20083;-72
2022/06/15 05:09:23;;;;;;;1.88;0.57;;;18.00;97.70;;;;;;5013979;28;20018;-71
2022/06/15 05:11:51;;;;;;;1.00;0.57;;;18.00;97.60;;;;;;5014075;28;20109;-71
2022/06/15 05:14:18;;;;;;;0.88;0.43;;;18.00;97.90;;;;;;5013632;28;20034;-71
2022/06/15 05:16:47;;;;;;;1.23;0.30;;;17.90;98.60;;;;;;5012531;28;20057;-71
2022/06/15 05:19:14;;;;;;;0.95;0.43;;;17.80;97.40;;;;;;5012348;28;20025;-72
2022/06/15 05:21:43;;;;;;;1.02;0.40;;;17.70;98.00;;;;;;5013810;28;20025;-72
2022/06/15 05:24:12;;;;;;;0.57;0.30;;;17.70;98.10;;;;;;5013548;28;20030;-70
2022/06/15 05:26:40;;;;;;;0.70;0.25;;;17.70;98.60;;;;;;5012323;28;20029;-72
2022/06/15 05:29:07;;;;;;;0.40;0.30;;;17.60;99.30;;;;;;5012195;28;20026;-70
2022/06/15 05:31:35;;;;;;;0.75;0.50;;;17.50;98.80;;;;;;5012173;28;20028;-70
2022/06/15 05:34:05;;;;;;;1.50;0.30;;;17.50;99.30;;;;;;5013416;28;20119;-70
2022/06/15 05:36:37;;;;;;;0.65;0.30;;;17.40;99.10;;;;;;5013545;28;20089;-71
2022/06/15 05:39:05;;;;;;;0.63;0.20;;;17.40;99.20;;;;;;5013895;28;20463;-71
2022/06/15 05:41:33;;;;;;;1.30;0.30;;;17.30;98.80;;;;;;5012038;28;20030;-70
2022/06/15 05:44:02;;;;;;;1.23;0.60;;;17.30;99.50;;;;;;5013412;28;20100;-71
2022/06/15 05:46:32;;;;;;;0.38;0.30;;;17.20;99.90;;;;;;5012080;28;20427;-71
2022/06/15 05:49:01;;;;;;;1.30;0.32;;;17.10;99.90;;;;;;5011965;28;20026;-71
2022/06/15 05:51:29;;;;;;;1.10;0.45;;;17.00;99.90;;;;;;5013072;28;20494;-71
2022/06/15 05:53:56;;;;;;;0.77;0.30;;;16.90;99.90;;;;;;5013234;28;20022;-71
2022/06/15 05:56:24;;;;;;;1.08;0.50;;;16.80;99.90;;;;;;5011898;28;20472;-71
2022/06/15 05:58:52;;;;;;;4.10;0.30;;;16.70;99.90;;;;;;5013620;28;20048;-71
2022/06/15 06:01:31;;;;;;;1.30;0.40;;;16.60;99.90;;;;;;5012985;28;20026;-71
2022/06/15 06:03:59;;;;;;;1.20;0.50;;;16.70;99.90;;;;;;5013230;28;20374;-70
2022/06/15 06:06:28;;;;;;;0.70;0.40;;;16.60;99.90;;;;;;5013094;28;20096;-71
2022/06/15 06:08:56;;;;;;;1.92;0.50;;;16.50;99.90;;;;;;5011410;28;20116;-71
2022/06/15 06:11:24;;;;;;;1.42;0.60;;;16.30;99.90;;;;;;5013018;28;20033;-71
2022/06/15 06:13:51;;;;;;;2.42;0.90;;;16.10;99.90;;;;;;5011613;28;20026;-71
2022/06/15 06:16:20;;;;;;;1.50;0.70;;;16.00;99.90;;;;;;5012968;28;20057;-71
2022/06/15 06:18:47;;;;;;;3.33;0.70;;;15.80;99.90;;;;;;5011650;28;20470;-71
2022/06/15 06:21:15;;;;;;;2.17;0.90;;;15.60;99.90;;;;;;5012756;28;20104;-71
2022/06/15 06:23:42;;;;;;;4.22;0.80;;;15.50;99.90;;;;;;5012897;28;20474;-70
2022/06/15 06:26:26;;;;;;;5.40;1.58;;;15.40;99.90;;;;;;5013453;28;20021;-71
2022/06/15 06:28:54;;;;;;;3.40;1.00;;;15.20;99.90;;;;;;5016876;28;20018;-71
2022/06/15 06:31:21;;;;;;;7.20;1.30;;;15.00;99.90;;;;;;5016605;28;20021;-70
2022/06/15 06:33:50;;;;;;;6.13;1.17;;;14.90;99.90;;;;;;5015342;28;20109;-71
2022/06/15 06:36:25;;;;;;;4.40;0.93;;;14.80;99.90;;;;;;5016433;28;20025;-72
2022/06/15 06:38:53;;;;;;;3.03;1.00;;;14.70;99.90;;;;;;5016445;28;20053;-70
2022/06/15 06:41:23;;;;;;;4.47;1.25;;;14.70;99.90;;;;;;5016418;28;20030;-72
2022/06/15 06:43:50;;;;;;;3.43;0.90;;;14.50;99.90;;;;;;5016606;28;20026;-70
2022/06/15 06:46:18;;;;;;;3.85;1.08;;;14.40;99.90;;;;;;5015129;28;20264;-72
2022/06/15 06:48:46;;;;;;;3.65;1.05;;;14.30;99.90;;;;;;5016388;28;20026;-73
2022/06/15 06:51:13;;;;;;;2.67;0.75;;;14.30;99.90;;;;;;5015993;28;20054;-73
2022/06/15 06:53:41;;;;;;;5.13;1.35;;;14.20;99.90;;;;;;5016410;28;20026;-71
2022/06/15 06:56:10;;;;;;;5.47;1.20;;;14.20;99.90;;;;;;5016764;28;20080;-71
2022/06/15 06:58:38;;;;;;;3.58;1.10;;;14.20;99.90;;;;;;5016072;28;20092;-71
2022/06/15 07:01:05;;;;;;;5.25;1.27;;;14.20;99.90;;;;;;5014439;28;20026;-71
2022/06/15 07:03:33;;;;;;;2.95;1.23;;;14.00;99.90;;;;;;5015882;28;20018;-71
2022/06/15 07:06:05;;;;;;;3.60;1.30;;;13.90;99.90;;;;;;5014639;28;20046;-71
2022/06/15 07:08:33;;;;;;;5.95;1.15;;;13.80;99.90;;;;;;5016320;28;20032;-71
2022/06/15 07:11:01;;;;;;;3.17;1.23;;;13.60;99.90;;;;;;5016152;28;20037;-72
2022/06/15 07:13:30;;;;;;;3.58;1.00;;;13.50;99.90;;;;;;5015885;28;20058;-70
2022/06/15 07:15:57;;;;;;;4.93;1.20;;;13.40;99.90;;;;;;5016172;28;20049;-71
2022/06/15 07:18:24;;;;;;;2.60;1.27;;;13.30;99.90;;;;;;5016066;28;20528;-71
2022/06/15 07:20:51;;;;;;;3.05;1.42;;;13.30;99.90;;;;;;5014574;28;20430;-71
2022/06/15 07:23:19;;;;;;;3.63;1.52;;;13.20;99.90;;;;;;5015931;28;20071;-71
2022/06/15 07:25:46;;;;;;;3.25;1.77;;;13.10;99.90;;;;;;5015997;28;20026;-72
2022/06/15 07:28:15;;;;;;;6.88;1.83;;;13.10;99.90;;;;;;5015792;28;20104;-71
2022/06/15 07:30:42;;;;;;;4.30;1.40;;;13.10;99.90;;;;;;5014671;28;20037;-71
2022/06/15 07:33:09;;;;;;;6.82;1.50;;;13.00;99.90;;;;;;5015826;28;20394;-71
2022/06/15 07:35:38;;;;;;;4.15;1.92;;;12.90;99.90;;;;;;5014354;28;20045;-71
2022/06/15 07:38:06;;;;;;;3.30;1.40;;;12.80;99.90;;;;;;5015705;28;20018;-71
2022/06/15 07:40:34;;;;;;;3.47;1.60;;;12.80;99.90;;;;;;5014208;28;20108;-71
2022/06/15 07:43:01;;;;;;;2.17;1.83;;;12.70;99.90;;;;;;5015641;28;20029;-71
2022/06/15 07:45:29;;;;;;;1.92;1.30;;;12.70;99.90;;;;;;5015621;28;20025;-71
2022/06/15 07:50:42;;;;;;;3.17;1.52;;;12.60;99.90;;;;;;5015240;28;20041;-71
2022/06/15 07:53:13;;;;;;;3.08;1.40;;;12.60;99.90;;;;;;5014052;28;20390;-71
2022/06/15 07:55:46;;;;;;;2.70;1.40;;;12.60;99.90;;;;;;5014000;28;20036;-71
2022/06/15 07:58:15;;;;;;;2.20;1.25;;;12.70;99.90;;;;;;5015550;28;20026;-71
2022/06/15 08:00:46;;;;;;;3.67;1.45;;;12.70;99.90;;;;;;5013822;28;20030;-71
2022/06/15 08:03:14;;;;;;;3.55;1.20;;;12.70;99.90;;;;;;5015166;28;20028;-71
2022/06/15 08:05:47;;;;;;;1.73;1.00;;;12.70;99.90;;;;;;5013890;28;20030;-71
2022/06/15 08:08:20;;;;;;;2.15;1.15;;;12.70;99.90;;;;;;5015327;28;20125;-71
2022/06/15 08:10:49;;;;;;;3.88;1.30;;;12.60;99.90;;;;;;5013770;28;20030;-71
2022/06/15 08:13:18;;;;;;;1.92;1.08;;;12.60;99.90;;;;;;5015070;28;20022;-71
2022/06/15 08:15:47;;;;;;;1.40;0.88;;;12.60;99.90;;;;;;5013709;28;20029;-71
2022/06/15 08:18:19;;;;;;;1.90;0.90;;;12.50;99.90;;;;;;5013950;28;20032;-71
2022/06/15 08:20:53;;;;;;;2.47;1.30;;;12.50;99.90;;;;;;5014824;28;20032;-71
2022/06/15 08:23:23;;;;;;;1.73;1.10;;;12.50;99.90;;;;;;5015096;28;20076;-71
2022/06/15 08:25:55;;;;;;;2.25;1.02;;;12.60;99.90;;;;;;5013843;28;20081;-71
2022/06/15 08:28:26;;;;;;;1.98;1.10;;;12.80;99.90;;;;;;5014862;28;20386;-70
2022/06/15 08:30:54;;;;;;;3.22;1.42;;;12.90;99.90;;;;;;5013332;28;20022;-70
2022/06/15 08:33:22;;;;;;;2.95;1.15;;;12.90;99.90;;;;;;5014621;28;20102;-71
2022/06/15 08:35:50;;;;;;;1.95;1.13;;;13.00;99.90;;;;;;5014682;28;20030;-71
2022/06/15 08:38:20;;;;;;;2.00;1.30;;;12.90;99.90;;;;;;5014703;28;20026;-71
2022/06/15 08:40:50;;;;;;;2.00;0.80;;;12.90;99.90;;;;;;5014478;28;20052;-71
2022/06/15 08:43:31;;;;;;;1.65;0.85;;;13.10;99.90;;;;;;5013100;28;20033;-70
2022/06/15 08:46:07;;;;;;;1.83;0.90;;;13.00;99.90;;;;;;5014544;28;20105;-71
2022/06/15 08:48:50;;;;;;;2.20;0.77;;;13.00;99.90;;;;;;5014164;28;20034;-71
2022/06/15 08:51:30;;;;;;;2.25;0.75;;;13.20;99.90;;;;;;5014040;28;20054;-71
2022/06/15 08:54:21;;;;;;;1.45;0.88;;;13.40;99.90;;;;;;5014309;28;20489;-71
2022/06/15 08:57:20;;;;;;;1.42;1.13;;;13.40;99.90;;;;;;5012965;28;20060;-70
2022/06/15 08:59:58;;;;;;;2.10;1.00;;;13.50;99.90;;;;;;5014122;28;20052;-71
2022/06/15 09:02:25;;;;;;;3.35;1.10;;;13.50;99.90;;;;;;5014229;28;20382;-71
2022/06/15 09:05:11;;;;;;;2.03;1.20;;;13.40;99.90;;;;;;5014248;28;20501;-71
2022/06/15 09:08:17;;;;;;;1.70;1.25;;;13.50;99.90;;;;;;5014253;28;20018;-71
2022/06/15 09:11:13;;;;;;;2.80;0.98;;;13.50;99.90;;;;;;5012638;28;20402;-71
2022/06/15 09:13:56;;;;;;;1.23;1.00;;;13.40;99.90;;;;;;5013978;28;20026;-71
2022/06/15 09:16:41;;;;;;;3.50;1.20;;;13.40;99.90;;;;;;5014431;28;20033;-72
2022/06/15 09:19:14;;;;;;;2.95;0.90;;;13.40;99.90;;;;;;5012435;28;20490;-71
2022/06/15 09:21:52;;;;;;;1.38;0.90;;;13.20;99.90;;;;;;5014014;28;20030;-71
2022/06/15 09:24:47;;;;;;;2.47;1.10;;;13.30;99.90;;;;;;5013821;28;20026;-70
2022/06/15 09:28:01;;;;;;;1.95;1.42;;;13.20;99.90;;;;;;5013715;28;20129;-70
2022/06/15 09:30:32;;;;;;;2.15;1.33;;;13.10;99.90;;;;;;4982702;28;20380;-70
2022/06/15 09:33:01;;;;;;;2.33;1.20;;;13.10;99.90;;;;;;5013633;28;20032;-70
2022/06/15 09:35:52;;;;;;;1.20;1.00;;;13.10;99.90;;;;;;5013570;28;20022;-71
2022/06/15 09:38:19;;;;;;;2.13;1.15;;;13.10;99.90;;;;;;5012334;28;20029;-69
2022/06/15 09:41:12;;;;;;;2.65;1.00;;;13.10;99.90;;;;;;5013465;28;20062;-69
2022/06/15 09:43:50;;;;;;;3.92;1.20;;;13.10;99.90;;;;;;5013999;28;20026;-71
2022/06/15 09:46:29;;;;;;;2.25;1.10;;;13.00;99.90;;;;;;5013541;28;20498;-71
2022/06/15 09:49:05;;;;;;;1.80;1.20;;;13.00;99.90;;;;;;5012174;28;20017;-70
2022/06/15 09:52:23;;;;;;;2.92;1.50;;;13.00;99.90;;;;;;5011740;28;20060;-70
2022/06/15 09:55:12;;;;;;;2.50;1.48;;;13.10;99.90;;;;;;5011907;28;20450;-71
2022/06/15 09:57:40;;;;;;;2.90;1.20;;;13.10;99.90;;;;;;5011962;28;20026;-70
2022/06/15 10:00:14;;;;;;;2.55;1.30;;;13.00;99.90;;;;;;5012997;28;20026;-70
2022/06/15 10:02:49;;;;;;;1.40;1.10;;;13.10;99.90;;;;;;5011433;28;20066;-71
2022/06/15 10:05:30;;;;;;;1.42;1.00;;;13.10;99.90;;;;;;5012001;28;20022;-70
2022/06/15 10:08:02;;;;;;;1.60;0.80;;;13.20;99.90;;;;;;5013261;28;20032;-70
2022/06/15 10:10:36;;;;;;;2.08;1.33;;;13.10;99.90;;;;;;5011829;28;20037;-69
2022/06/15 10:13:19;;;;;;;1.45;1.25;;;13.00;99.90;;;;;;5013104;28;20049;-70
2022/06/15 10:15:55;;;;;;;1.67;0.77;;;12.90;99.90;;;;;;5011861;28;20034;-69
2022/06/15 10:18:23;;;;;;;2.17;0.90;;;13.00;99.90;;;;;;5013791;28;20022;-70
2022/06/15 10:21:06;;;;;;;1.75;1.00;;;13.00;99.90;;;;;;5013113;28;20083;-71
2022/06/15 10:23:43;;;;;;;2.35;1.00;;;13.10;99.90;;;;;;5013346;28;20026;-70
2022/06/15 10:26:34;;;;;;;1.92;0.90;;;13.20;99.90;;;;;;5013171;28;20030;-69
2022/06/15 10:29:22;;;;;;;;;;;13.10;99.90;;;;;;5013325;28;20476;-69
2022/06/15 10:32:05;;;;;;;2.42;1.52;;;13.10;99.90;;;;;;5012963;28;20019;-69
2022/06/15 10:34:37;;;;;;;2.42;1.27;;;13.00;99.90;;;;;;5013223;28;20025;-69
2022/06/15 10:37:19;;;;;;;1.63;1.10;;;13.10;99.90;;;;;;5013396;28;20022;-69
2022/06/15 10:39:53;;;;;;;2.60;1.27;;;13.20;99.90;;;;;;5011505;28;20410;-70
2022/06/15 10:42:42;;;;;;;1.92;1.13;;;13.10;99.90;;;;;;5011691;28;20492;-70
2022/06/15 10:45:20;;;;;;;1.15;0.80;;;13.20;99.90;;;;;;5013004;28;20431;-69
2022/06/15 10:47:57;;;;;;;1.85;1.08;;;13.30;99.90;;;;;;5012837;28;20026;-69
2022/06/15 10:50:38;;;;;;;1.77;1.00;;;13.20;99.90;;;;;;5012724;28;20030;-70
2022/06/15 10:53:22;;;;;;;;;;;13.20;99.90;;;;;;5011947;28;20052;-69
2022/06/15 11:02:07;;;;;;;2.10;1.17;;;13.20;99.90;;;;;;5012849;28;20552;-69
2022/06/15 11:04:43;;;;;;;1.60;1.02;;;13.20;99.90;;;;;;5013060;28;20018;-70
2022/06/15 11:07:23;;;;;;;1.83;1.00;;;13.20;99.90;;;;;;5011419;28;20030;-70
2022/06/15 11:09:56;;;;;;;2.17;0.90;;;13.30;99.90;;;;;;5012651;28;20026;-70
2022/06/15 11:12:31;;;;;;;2.95;1.10;;;13.30;99.90;;;;;;5013524;28;20076;-70
2022/06/15 11:15:22;;;;;;;1.55;1.05;;;13.20;99.90;;;;;;5016196;28;20101;-70
2022/06/15 11:18:03;;;;;;;2.08;1.20;;;13.20;99.90;;;;;;5014776;28;20422;-70
2022/06/15 11:20:51;;;;;;;2.72;1.10;;;13.10;99.90;;;;;;5015977;28;20022;-69
2022/06/15 11:23:41;;;;;;;2.53;1.08;;;13.10;99.90;;;;;;5016463;28;20029;-69
2022/06/15 11:27:16;;;;;;;1.10;0.97;;;13.10;99.90;;;;;;5005535;28;20061;-70
2022/06/15 11:29:45;;;;;;;2.50;1.20;;;13.00;99.90;;;;;;5007673;28;20125;-70
2022/06/15 11:32:34;;;;;;;1.48;1.08;;;13.00;99.90;;;;;;5016143;28;20037;-70
2022/06/15 11:35:13;;;;;;;3.08;1.23;;;13.00;99.90;;;;;;5014447;28;20036;-69
2022/06/15 11:37:52;;;;;;;1.90;1.27;;;12.90;99.90;;;;;;5015925;28;20071;-69
2022/06/15 11:40:42;;;;;;;1.50;1.23;;;12.90;99.90;;;;;;5014282;28;20482;-69
2022/06/15 11:43:23;;;;;;;3.15;1.30;;;12.80;99.90;;;;;;5015657;28;20041;-70
2022/06/15 11:46:20;;;;;;;1.85;1.20;;;12.60;99.90;;;;;;5015745;28;20097;-69
2022/06/15 11:49:13;;;;;;;1.85;1.00;;;12.60;99.90;;;;;;5014660;28;20030;-70
2022/06/15 11:51:59;;;;;;;1.52;1.00;;;12.70;99.90;;;;;;5015470;28;20096;-69
2022/06/15 11:55:10;;;;;;;1.67;0.90;;;12.80;99.90;;;;;;5015721;28;20486;-69
2022/06/15 11:57:43;;;;;;;1.73;0.80;;;13.00;99.90;;;;;;5015336;28;20022;-69
2022/06/15 12:00:13;;;;;;;1.05;0.85;;;12.90;99.90;;;;;;5015855;28;20026;-70
2022/06/15 12:02:46;;;;;;;0.70;0.60;;;13.00;99.90;;;;;;5015391;28;20092;-69
2022/06/15 12:05:27;;;;;;;1.48;0.88;;;13.00;99.90;;;;;;5015264;28;20022;-70
2022/06/15 12:08:15;;;;;;;1.73;0.80;;;13.00;99.90;;;;;;5013762;28;20060;-69
2022/06/15 12:10:50;;;;;;;1.45;0.70;;;12.90;99.90;;;;;;5013841;28;20053;-70
2022/06/15 12:13:30;;;;;;;0.55;0.50;;;12.90;99.90;;;;;;5014163;28;20033;-70
2022/06/15 12:16:23;;;;;;;1.15;0.57;;;12.80;99.90;;;;;;5015219;28;20030;-69
2022/06/15 12:19:12;;;;;;;1.88;0.73;;;12.80;99.90;;;;;;4978374;28;20513;-70
2022/06/15 12:22:43;;;;;;;1.38;0.82;;;12.70;99.90;;;;;;5014942;28;20454;-69
2022/06/15 12:25:42;;;;;;;0.98;0.70;;;12.80;99.90;;;;;;4934455;29;20020;-71
2022/06/15 12:28:20;;;;;;;0.70;0.60;;;12.80;99.90;;;;;;4885656;29;20056;-69
2022/06/15 12:31:16;;;;;;;1.35;0.55;;;12.90;99.90;;;;;;4996859;28;20117;-70
2022/06/15 12:34:36;;;;;;;1.80;0.60;;;12.90;99.90;;;;;;5015015;28;20026;-70
2022/06/15 12:37:12;;;;;;;1.38;0.80;;;12.90;99.90;;;;;;4935351;29;20032;-70
2022/06/15 12:39:58;;;;;;;1.60;0.60;;;12.90;99.90;;;;;;5004206;28;20113;-70
2022/06/15 12:42:25;;;;;;;1.50;0.80;;;12.90;99.90;;;;;;5014687;28;20101;-69
2022/06/15 12:44:59;;;;;;;2.42;0.75;;;13.00;99.90;;;;;;5014509;28;20022;-70
2022/06/15 12:47:29;;;;;;;0.98;0.65;;;13.00;99.90;;;;;;5013104;28;20029;-69
2022/06/15 12:50:15;;;;;;;1.33;0.40;;;13.10;99.90;;;;;;5014250;28;20018;-70
2022/06/15 12:52:57;;;;;;;0.75;0.50;;;13.10;99.90;;;;;;5012685;28;20053;-69
2022/06/15 12:55:54;;;;;;;1.75;0.40;;;13.10;99.90;;;;;;5012922;28;20018;-69
2022/06/15 12:58:39;;;;;;;0.50;0.40;;;13.10;99.90;;;;;;4984274;28;20375;-69
2022/06/15 13:01:24;;;;;;;0.68;0.57;;;13.20;99.90;;;;;;5014153;28;20033;-70
2022/06/15 13:04:00;;;;;;;0.57;0.40;;;13.10;99.90;;;;;;5012810;28;20088;-70
2022/06/15 13:06:39;;;;;;;0.50;0.50;;;13.10;99.90;;;;;;5014267;28;20037;-68
2022/06/15 13:09:20;;;;;;;1.15;0.52;;;13.10;99.90;;;;;;5012757;28;20032;-68
2022/06/15 13:12:04;;;;;;;0.50;0.40;;;13.10;99.90;;;;;;5014309;28;20026;-68
2022/06/15 13:14:51;;;;;;;1.08;0.93;;;13.20;99.90;;;;;;5014054;28;20025;-68
2022/06/15 13:17:24;;;;;;;0.50;0.40;;;13.20;99.90;;;;;;5012780;28;20026;-68
2022/06/15 13:20:07;;;;;;;1.10;0.40;;;13.20;99.90;;;;;;5012716;28;20038;-69
2022/06/15 13:22:42;;;;;;;1.83;0.40;;;13.10;99.90;;;;;;5013963;28;20065;-69
2022/06/15 13:25:20;;;;;;;0.70;0.40;;;13.10;99.90;;;;;;5013864;28;20021;-68
2022/06/15 13:28:02;;;;;;;0.50;0.38;;;13.00;99.90;;;;;;5013991;28;20090;-69
2022/06/15 13:30:32;;;;;;;0.95;0.40;;;13.10;99.90;;;;;;5014195;28;20026;-68
2022/06/15 13:33:02;;;;;;;0.60;0.40;;;13.10;99.90;;;;;;5014045;28;20026;-68
2022/06/15 13:35:34;;;;;;;0.80;0.40;;;13.10;99.90;;;;;;5013607;28;20018;-69
2022/06/15 13:38:23;;;;;;;1.75;0.43;;;13.10;99.90;;;;;;5013710;28;20565;-69
2022/06/15 13:41:00;;;;;;;0.57;0.38;;;13.20;99.90;;;;;;5011372;28;20046;-68
2022/06/15 13:43:49;;;;;;;1.65;0.43;;;13.10;99.90;;;;;;5012107;28;20061;-70